createdAt,value
2022-12-11T00:01:24.315Z,101342.59
2022-12-11T00:03:50.955Z,101345.13
2022-12-11T00:06:20.456Z,101335.66
2022-12-11T00:08:47.458Z,101336.53
2022-12-11T00:11:17.237Z,101330.47
2022-12-11T00:13:44.035Z,101336.59
2022-12-11T00:16:10.973Z,101325.34
2022-12-11T00:18:37.898Z,101343.53
2022-12-11T00:21:06.002Z,101340.06
2022-12-11T00:23:32.852Z,101334.88
2022-12-11T00:25:59.256Z,101333.94
2022-12-11T00:28:25.645Z,101329.63
2022-12-11T00:30:52.007Z,101334.91
2022-12-11T00:33:18.410Z,101341.00
2022-12-11T00:35:47.173Z,101343.63
2022-12-11T00:38:16.759Z,101335.84
2022-12-11T00:40:43.590Z,101334.94
2022-12-11T00:43:10.447Z,101337.53
2022-12-11T00:45:44.790Z,101328.00
2022-12-11T00:48:12.402Z,101328.84
2022-12-11T00:50:39.687Z,101323.63
2022-12-11T00:53:07.250Z,101321.00
2022-12-11T00:55:37.988Z,101323.63
2022-12-11T00:58:05.065Z,101316.66
2022-12-11T01:00:31.927Z,101315.78
2022-12-11T01:02:58.489Z,101312.34
2022-12-11T01:05:24.981Z,101317.53
2022-12-11T01:07:51.399Z,101314.94
2022-12-11T01:10:26.776Z,101304.53
2022-12-11T01:12:55.778Z,101306.28
2022-12-11T01:15:24.801Z,101312.28
2022-12-11T01:17:51.667Z,101310.56
2022-12-11T01:20:19.890Z,101310.63
2022-12-11T01:22:46.446Z,101314.94
2022-12-11T01:25:12.970Z,101311.44
2022-12-11T01:27:39.733Z,101320.16
2022-12-11T01:30:08.046Z,101315.03
2022-12-11T01:32:36.010Z,101314.94
2022-12-11T01:35:07.837Z,101328.84
2022-12-11T01:37:34.981Z,101320.19
2022-12-11T01:40:02.118Z,101323.63
2022-12-11T01:42:31.541Z,101319.25
2022-12-11T01:45:25.713Z,101314.91
2022-12-11T01:48:27.658Z,101327.91
2022-12-11T01:50:58.117Z,101326.19
2022-12-11T01:53:38.557Z,101321.84
2022-12-11T01:56:06.622Z,101313.22
2022-12-11T01:58:38.547Z,101320.16
2022-12-11T02:01:05.246Z,101321.00
2022-12-11T02:03:31.846Z,101312.34
2022-12-11T02:06:02.395Z,101309.84
2022-12-11T02:08:29.368Z,101312.50
2022-12-11T02:11:20.603Z,101309.84
2022-12-11T02:17:06.626Z,101302.88
2022-12-11T02:19:51.661Z,101304.63
2022-12-11T02:22:50.014Z,101299.41
2022-12-11T02:25:52.594Z,101292.50
2022-12-11T02:28:30.087Z,101288.97
2022-12-11T02:31:13.925Z,101288.97
2022-12-11T02:33:49.017Z,101289.84
2022-12-11T02:36:18.183Z,101290.69
2022-12-11T02:38:50.673Z,101285.50
2022-12-11T02:41:19.351Z,101280.38
2022-12-11T02:43:47.488Z,101278.66
2022-12-11T02:46:15.212Z,101279.53
2022-12-11T02:48:42.738Z,101279.50
2022-12-11T02:51:11.143Z,101279.53
2022-12-11T02:53:40.316Z,101279.44
2022-12-11T02:56:13.977Z,101288.91
2022-12-11T02:58:47.650Z,101289.84
2022-12-11T03:01:14.310Z,101282.88
2022-12-11T03:03:40.790Z,101284.56
2022-12-11T03:06:11.755Z,101285.44
2022-12-11T03:08:38.171Z,101281.06
2022-12-11T03:11:04.674Z,101284.50
2022-12-11T03:13:31.531Z,101282.78
2022-12-11T03:16:15.285Z,101281.00
2022-12-11T03:18:50.774Z,101286.22
2022-12-11T03:21:35.826Z,101288.81
2022-12-11T03:24:11.310Z,101293.19
2022-12-11T03:26:43.940Z,101289.75
2022-12-11T03:29:19.118Z,101292.41
2022-12-11T03:31:54.339Z,101287.16
2022-12-11T03:34:37.026Z,101290.63
2022-12-11T03:37:05.395Z,101293.19
2022-12-11T03:39:35.858Z,101285.38
2022-12-11T03:42:05.767Z,101289.75
2022-12-11T03:44:35.302Z,101287.97
2022-12-11T03:47:04.499Z,101284.56
2022-12-11T03:49:36.702Z,101288.88
2022-12-11T03:52:04.974Z,101281.00
2022-12-11T03:54:31.614Z,101286.19
2022-12-11T03:57:01.367Z,101276.69
2022-12-11T03:59:27.878Z,101272.28
2022-12-11T04:01:54.291Z,101266.22
2022-12-11T04:04:21.133Z,101271.47
2022-12-11T04:06:47.574Z,101275.78
2022-12-11T04:09:14.133Z,101274.84
2022-12-11T04:11:42.753Z,101278.28
2022-12-11T04:14:30.987Z,101273.22
2022-12-11T04:16:59.297Z,101265.28
2022-12-11T04:19:44.457Z,101269.56
2022-12-11T04:22:15.447Z,101269.44
2022-12-11T04:24:41.849Z,101281.56
2022-12-11T04:27:08.273Z,101275.44
2022-12-11T04:29:34.718Z,101271.00
2022-12-11T04:32:01.193Z,101262.31
2022-12-11T04:34:27.622Z,101257.00
2022-12-11T04:36:54.047Z,101255.31
2022-12-11T04:39:20.467Z,101257.09
2022-12-11T04:41:46.931Z,101261.25
2022-12-11T04:44:13.457Z,101251.72
2022-12-11T04:46:39.964Z,101256.00
2022-12-11T04:49:06.423Z,101255.00
2022-12-11T04:51:32.810Z,101247.19
2022-12-11T04:53:59.540Z,101247.94
2022-12-11T04:56:25.940Z,101249.56
2022-12-11T04:58:52.324Z,101246.91
2022-12-11T05:01:21.257Z,101245.97
2022-12-11T05:03:48.634Z,101252.03
2022-12-11T05:06:15.578Z,101252.78
2022-12-11T05:08:43.138Z,101260.53
2022-12-11T05:11:13.366Z,101256.13
2022-12-11T05:13:39.783Z,101258.75
2022-12-11T05:16:08.364Z,101261.25
2022-12-11T05:18:35.077Z,101252.59
2022-12-11T05:21:05.113Z,101263.00
2022-12-11T05:23:31.883Z,101251.59
2022-12-11T05:26:01.887Z,101252.44
2022-12-11T05:28:31.899Z,101258.44
2022-12-11T05:31:00.171Z,101248.81
2022-12-11T05:33:27.089Z,101254.91
2022-12-11T05:35:53.814Z,101243.47
2022-12-11T05:38:20.689Z,101246.94
2022-12-11T05:40:59.852Z,101239.94
2022-12-11T05:43:28.119Z,101236.44
2022-12-11T05:45:54.895Z,101238.09
2022-12-11T05:48:21.719Z,101239.75
2022-12-11T05:51:01.886Z,101244.09
2022-12-11T05:53:29.209Z,101243.34
2022-12-11T05:56:05.024Z,101239.75
2022-12-11T05:58:32.010Z,101245.84
2022-12-11T06:00:59.026Z,101241.47
2022-12-11T06:03:25.521Z,101241.47
2022-12-11T06:05:52.374Z,101237.84
2022-12-11T06:08:19.007Z,101232.78
2022-12-11T06:10:49.687Z,101225.72
2022-12-11T06:13:16.702Z,101225.72
2022-12-11T06:15:43.371Z,101236.03
2022-12-11T06:18:09.971Z,101234.28
2022-12-11T06:20:36.793Z,101231.75
2022-12-11T06:23:03.587Z,101232.63
2022-12-11T06:25:30.190Z,101229.13
2022-12-11T06:27:56.734Z,101236.13
2022-12-11T06:30:23.661Z,101234.38
2022-12-11T06:33:05.743Z,101237.03
2022-12-11T06:35:34.247Z,101234.34
2022-12-11T06:38:05.090Z,101229.13
2022-12-11T06:40:31.493Z,101233.44
2022-12-11T06:42:57.853Z,101244.84
2022-12-11T06:45:24.312Z,101243.97
2022-12-11T06:47:50.743Z,101248.28
2022-12-11T06:50:17.304Z,101252.63
2022-12-11T06:52:43.661Z,101249.16
2022-12-11T06:55:10.430Z,101249.94
2022-12-11T06:57:37.080Z,101253.31
2022-12-11T07:00:04.219Z,101250.78
2022-12-11T07:02:30.654Z,101248.22
2022-12-11T07:04:57.034Z,101250.06
2022-12-11T07:07:23.577Z,101249.31
2022-12-11T07:09:49.953Z,101245.84
2022-12-11T07:12:17.123Z,101250.22
2022-12-11T07:14:43.528Z,101251.88
2022-12-11T07:17:09.914Z,101263.03
2022-12-11T07:19:36.352Z,101255.28
2022-12-11T07:22:02.806Z,101257.88
2022-12-11T07:24:29.371Z,101258.78
2022-12-11T07:26:55.897Z,101253.56
2022-12-11T07:29:22.362Z,101255.28
2022-12-11T07:31:48.889Z,101263.03
2022-12-11T07:34:15.335Z,101259.53
2022-12-11T07:36:42.415Z,101263.00
2022-12-11T07:39:11.673Z,101264.75
2022-12-11T07:41:38.769Z,101265.75
2022-12-11T07:44:05.548Z,101272.66
2022-12-11T07:46:33.929Z,101270.06
2022-12-11T07:49:01.534Z,101269.13
2022-12-11T07:51:30.857Z,101270.06
2022-12-11T07:54:00.137Z,101274.41
2022-12-11T07:56:28.154Z,101277.84
2022-12-11T07:58:54.883Z,101276.94
2022-12-11T08:01:26.503Z,101278.66
2022-12-11T08:03:53.842Z,101274.34
2022-12-11T08:06:25.838Z,101276.88
2022-12-11T08:08:53.940Z,101278.53
2022-12-11T08:11:20.328Z,101278.59
2022-12-11T08:13:46.807Z,101281.25
2022-12-11T08:16:15.427Z,101274.16
2022-12-11T08:18:43.130Z,101279.25
2022-12-11T08:21:13.179Z,101276.59
2022-12-11T08:23:39.598Z,101278.50
2022-12-11T08:26:07.571Z,101282.94
2022-12-11T08:28:34.802Z,101275.28
2022-12-11T08:31:05.064Z,101283.16
2022-12-11T08:33:31.811Z,101279.84
2022-12-11T08:35:58.629Z,101276.50
2022-12-11T08:38:25.742Z,101278.28
2022-12-11T08:40:52.203Z,101277.47
2022-12-11T08:43:18.609Z,101285.22
2022-12-11T08:45:46.515Z,101288.72
2022-12-11T08:48:13.106Z,101283.50
2022-12-11T08:50:39.568Z,101286.94
2022-12-11T08:53:05.999Z,101276.50
2022-12-11T08:55:33.071Z,101275.63
2022-12-11T08:58:00.301Z,101272.13
2022-12-11T09:00:26.690Z,101269.59
2022-12-11T09:02:53.147Z,101276.59
2022-12-11T09:05:19.641Z,101273.19
2022-12-11T09:07:46.859Z,101267.97
2022-12-11T09:10:13.369Z,101274.03
2022-12-11T09:12:40.531Z,101261.84
2022-12-11T09:15:07.480Z,101270.47
2022-12-11T09:17:35.195Z,101259.16
2022-12-11T09:20:01.984Z,101260.00
2022-12-11T09:22:28.589Z,101259.13
2022-12-11T09:24:55.093Z,101243.53
2022-12-11T09:27:22.133Z,101250.47
2022-12-11T09:29:48.592Z,101253.06
2022-12-11T09:32:15.068Z,101255.66
2022-12-11T09:34:41.559Z,101252.13
2022-12-11T09:37:08.109Z,101246.94
2022-12-11T09:39:34.486Z,101253.06
2022-12-11T09:42:52.115Z,101246.03
2022-12-11T09:45:18.891Z,101248.63
2022-12-11T09:47:50.297Z,101250.34
2022-12-11T09:50:26.043Z,101252.06
2022-12-11T09:53:13.112Z,101247.69
2022-12-11T09:55:45.906Z,101251.16
2022-12-11T09:58:23.197Z,101245.91
2022-12-11T10:00:57.803Z,101247.56
2022-12-11T10:03:53.338Z,101242.31
2022-12-11T10:06:34.982Z,101239.69
2022-12-11T10:09:30.783Z,101244.84
2022-12-11T10:12:03.160Z,101242.19
2022-12-11T10:14:38.862Z,101247.41
2022-12-11T10:17:29.015Z,101248.28
2022-12-11T10:19:58.128Z,101251.00
2022-12-11T10:22:30.307Z,101244.00
2022-12-11T10:25:15.018Z,101238.81
2022-12-11T10:27:41.783Z,101241.34
2022-12-11T10:30:16.355Z,101234.44
2022-12-11T10:32:51.610Z,101238.63
2022-12-11T10:35:31.488Z,101237.75
2022-12-11T10:38:14.394Z,101235.25
2022-12-11T10:40:45.270Z,101236.97
2022-12-11T10:43:12.375Z,101230.03
2022-12-11T10:45:39.279Z,101236.03
2022-12-11T10:48:14.776Z,101231.69
2022-12-11T10:50:44.757Z,101233.28
2022-12-11T10:53:31.261Z,101231.59
2022-12-11T10:56:00.574Z,101231.53
2022-12-11T10:58:33.780Z,101220.22
2022-12-11T11:01:15.000Z,101217.53
2022-12-11T11:03:54.944Z,101230.50
2022-12-11T11:06:22.778Z,101220.91
2022-12-11T11:08:58.058Z,101216.63
2022-12-11T11:11:34.424Z,101226.94
2022-12-11T11:14:09.858Z,101215.69
2022-12-11T11:16:38.882Z,101221.97
2022-12-11T11:19:06.492Z,101207.09
2022-12-11T11:21:35.280Z,101214.03
2022-12-11T11:24:02.039Z,101203.53
2022-12-11T11:27:04.459Z,101201.00
2022-12-11T11:29:30.003Z,101204.38
2022-12-11T11:31:57.318Z,101198.22
2022-12-11T11:34:26.012Z,101198.97
2022-12-11T11:36:57.877Z,101193.81
2022-12-11T11:39:35.797Z,101200.03
2022-12-11T11:42:14.995Z,101205.44
2022-12-11T11:44:57.490Z,101195.78
2022-12-11T11:47:30.388Z,101195.53
2022-12-11T11:50:16.275Z,101194.34
2022-12-11T11:52:49.855Z,101189.81
2022-12-11T11:55:39.885Z,101191.53
2022-12-11T11:58:17.454Z,101186.13
2022-12-11T12:00:43.900Z,101180.59
2022-12-11T12:03:15.021Z,101179.59
2022-12-11T12:06:14.749Z,101183.69
2022-12-11T12:09:12.959Z,101177.50
2022-12-11T12:12:13.357Z,101174.00
2022-12-11T12:14:58.516Z,101184.28
2022-12-11T12:17:36.158Z,101173.72
2022-12-11T12:20:11.865Z,101173.59
2022-12-11T12:23:01.593Z,101168.34
2022-12-11T12:25:37.022Z,101176.13
2022-12-11T12:28:30.453Z,101173.56
2022-12-11T12:31:21.554Z,101165.75
2022-12-11T12:33:50.942Z,101168.25
2022-12-11T12:36:25.615Z,101167.31
2022-12-11T12:39:00.909Z,101167.31
2022-12-11T12:42:07.336Z,101170.72
2022-12-11T12:44:59.483Z,101169.00
2022-12-11T12:47:30.616Z,101168.22
2022-12-11T12:49:59.885Z,101157.91
2022-12-11T12:52:31.605Z,101161.38
2022-12-11T12:55:14.744Z,101164.88
2022-12-11T12:57:44.828Z,101163.00
2022-12-11T13:00:14.634Z,101160.31
2022-12-11T13:02:50.555Z,101162.09
2022-12-11T13:05:32.802Z,101157.00
2022-12-11T13:08:03.129Z,101163.88
2022-12-11T13:10:35.685Z,101164.75
2022-12-11T13:13:03.691Z,101163.88
2022-12-11T13:15:32.000Z,101174.47
2022-12-11T13:18:00.236Z,101169.41
2022-12-11T13:20:30.337Z,101165.75
2022-12-11T13:23:05.878Z,101172.66
2022-12-11T13:25:45.635Z,101174.31
2022-12-11T13:28:25.832Z,101175.19
2022-12-11T13:31:07.582Z,101176.03
2022-12-11T13:33:41.381Z,101168.25
2022-12-11T13:36:16.705Z,101168.22
2022-12-11T13:38:49.361Z,101164.81
2022-12-11T13:41:17.722Z,101175.25
2022-12-11T13:43:46.940Z,101173.47
2022-12-11T13:46:17.782Z,101175.19
2022-12-11T13:48:49.836Z,101182.13
2022-12-11T13:51:21.983Z,101169.09
2022-12-11T13:53:48.542Z,101173.38
2022-12-11T13:56:22.610Z,101172.53
2022-12-11T13:58:49.079Z,101169.84
2022-12-11T14:01:23.716Z,101185.63
2022-12-11T14:03:56.967Z,101182.22
2022-12-11T14:06:25.030Z,101177.00
2022-12-11T14:08:56.292Z,101182.13
2022-12-11T14:11:29.927Z,101180.34
2022-12-11T14:13:59.639Z,101189.00
2022-12-11T14:16:27.741Z,101187.28
2022-12-11T14:19:02.403Z,101179.44
2022-12-11T14:21:28.926Z,101182.97
2022-12-11T14:23:58.498Z,101175.06
2022-12-11T14:26:30.652Z,101183.84
2022-12-11T14:28:57.285Z,101182.13
2022-12-11T14:31:31.942Z,101181.25
2022-12-11T14:34:05.737Z,101188.31
2022-12-11T14:36:35.134Z,101180.41
2022-12-11T14:39:13.363Z,101176.03
2022-12-11T14:41:45.605Z,101178.59
2022-12-11T14:44:17.378Z,101180.41
2022-12-11T14:46:52.098Z,101180.47
2022-12-11T14:49:43.124Z,101183.84
2022-12-11T14:52:20.023Z,101182.16
2022-12-11T14:54:57.282Z,101180.41
2022-12-11T14:57:28.311Z,101179.53
2022-12-11T14:59:56.341Z,101186.53
2022-12-11T15:02:33.487Z,101182.16
2022-12-11T15:05:18.089Z,101183.09
2022-12-11T15:08:24.635Z,101191.78
2022-12-11T15:11:00.224Z,101194.44
2022-12-11T15:13:26.789Z,101190.91
2022-12-11T15:15:55.573Z,101191.09
2022-12-11T15:18:29.078Z,101192.78
2022-12-11T15:21:09.334Z,101192.78
2022-12-11T15:23:44.743Z,101195.50
2022-12-11T15:26:11.635Z,101192.81
2022-12-11T15:28:39.186Z,101198.03
2022-12-11T15:31:22.726Z,101195.50
2022-12-11T15:33:49.097Z,101195.50
2022-12-11T15:36:23.890Z,101199.00
2022-12-11T15:38:50.389Z,101203.38
2022-12-11T15:41:21.083Z,101201.66
2022-12-11T15:43:47.981Z,101205.19
2022-12-11T15:46:14.432Z,101206.09
2022-12-11T15:48:40.798Z,101204.47
2022-12-11T15:51:07.244Z,101211.34
2022-12-11T15:53:33.799Z,101203.59
2022-12-11T15:56:00.697Z,101206.25
2022-12-11T15:58:27.458Z,101212.31
2022-12-11T16:00:54.725Z,101215.03
2022-12-11T16:03:22.757Z,101217.66
2022-12-11T16:05:51.367Z,101213.28
2022-12-11T16:08:20.926Z,101211.59
2022-12-11T16:10:48.186Z,101218.53
2022-12-11T16:13:15.052Z,101212.50
2022-12-11T16:15:44.388Z,101211.69
2022-12-11T16:18:17.558Z,101209.13
2022-12-11T16:20:45.626Z,101212.56
2022-12-11T16:23:14.323Z,101211.78
2022-12-11T16:25:42.134Z,101204.00
2022-12-11T16:28:10.581Z,101206.66
2022-12-11T16:30:37.740Z,101210.16
2022-12-11T16:33:11.744Z,101210.16
2022-12-11T16:35:39.790Z,101204.13
2022-12-11T16:38:06.444Z,101202.41
2022-12-11T16:40:32.823Z,101212.00
2022-12-11T16:42:59.178Z,101203.28
2022-12-11T16:45:26.840Z,101207.63
2022-12-11T16:47:53.357Z,101206.88
2022-12-11T16:50:20.108Z,101199.00
2022-12-11T16:52:47.262Z,101206.91
2022-12-11T16:55:14.920Z,101206.97
2022-12-11T16:57:41.739Z,101203.53
2022-12-11T17:00:10.854Z,101208.75
2022-12-11T17:02:37.279Z,101206.16
2022-12-11T17:05:03.886Z,101207.88
2022-12-11T17:07:32.516Z,101205.31
2022-12-11T17:10:00.591Z,101208.78
2022-12-11T17:12:27.899Z,101202.84
2022-12-11T17:14:55.601Z,101206.22
2022-12-11T17:17:22.171Z,101201.88
2022-12-11T17:19:49.128Z,101207.25
2022-12-11T17:22:15.562Z,101207.25
2022-12-11T17:24:42.083Z,101203.78
2022-12-11T17:27:08.585Z,101203.81
2022-12-11T17:29:35.097Z,101202.28
2022-12-11T17:32:03.093Z,101203.19
2022-12-11T17:34:36.068Z,101200.56
2022-12-11T17:37:04.625Z,101204.06
2022-12-11T17:39:31.185Z,101207.59
2022-12-11T17:41:57.673Z,101208.44
2022-12-11T17:44:24.514Z,101207.59
2022-12-11T17:46:51.070Z,101206.72
2022-12-11T17:49:17.504Z,101208.44
2022-12-11T17:51:43.913Z,101208.50
2022-12-11T17:54:10.313Z,101200.69
2022-12-11T17:56:36.881Z,101205.91
2022-12-11T17:59:03.769Z,101208.50
2022-12-11T18:01:30.315Z,101212.81
2022-12-11T18:04:00.042Z,101211.06
2022-12-11T18:06:27.551Z,101211.09
2022-12-11T18:08:53.946Z,101214.59
2022-12-11T18:11:23.757Z,101211.19
2022-12-11T18:13:51.744Z,101212.91
2022-12-11T18:16:19.770Z,101217.22
2022-12-11T18:18:48.219Z,101218.97
2022-12-11T18:21:26.879Z,101218.97
2022-12-11T18:23:54.290Z,101223.28
2022-12-11T18:26:21.258Z,101221.63
2022-12-11T18:28:48.887Z,101218.09
2022-12-11T18:31:16.282Z,101216.41
2022-12-11T18:33:44.573Z,101214.66
2022-12-11T18:36:13.462Z,101218.09
2022-12-11T18:38:40.854Z,101214.75
2022-12-11T18:41:09.101Z,101223.44
2022-12-11T18:43:36.319Z,101217.31
2022-12-11T18:46:07.712Z,101221.63
2022-12-11T18:48:34.292Z,101226.81
2022-12-11T18:51:01.049Z,101223.31
2022-12-11T18:53:27.398Z,101223.31
2022-12-11T18:55:59.998Z,101231.97
2022-12-11T18:58:26.897Z,101236.34
2022-12-11T19:00:53.315Z,101231.97
2022-12-11T19:03:19.766Z,101231.09
2022-12-11T19:05:46.197Z,101229.41
2022-12-11T19:08:13.947Z,101225.94
2022-12-11T19:10:42.682Z,101227.69
2022-12-11T19:13:09.293Z,101218.09
2022-12-11T19:15:44.209Z,101225.88
2022-12-11T19:18:11.254Z,101222.38
2022-12-11T19:20:55.645Z,101221.41
2022-12-11T19:23:24.414Z,101231.00
2022-12-11T19:25:51.153Z,101225.78
2022-12-11T19:28:17.992Z,101223.13
2022-12-11T19:30:47.440Z,101224.84
2022-12-11T19:33:15.332Z,101223.13
2022-12-11T19:35:41.974Z,101223.13
2022-12-11T19:38:08.938Z,101223.13
2022-12-11T19:40:43.172Z,101220.59
2022-12-11T19:43:09.722Z,101219.63
2022-12-11T19:45:36.714Z,101226.56
2022-12-11T19:48:03.339Z,101230.84
2022-12-11T19:50:29.823Z,101229.94
2022-12-11T19:52:56.275Z,101229.94
2022-12-11T19:55:22.675Z,101231.78
2022-12-11T19:57:49.038Z,101226.56
2022-12-11T20:00:15.834Z,101228.22
2022-12-11T20:02:42.340Z,101231.78
2022-12-11T20:05:09.346Z,101224.78
2022-12-11T20:07:36.314Z,101223.94
2022-12-11T20:10:02.785Z,101230.84
2022-12-11T20:12:29.622Z,101229.16
2022-12-11T20:14:56.013Z,101236.06
2022-12-11T20:17:22.470Z,101236.06
2022-12-11T20:19:48.854Z,101238.66
2022-12-11T20:22:15.358Z,101234.38
2022-12-11T20:24:41.827Z,101238.72
2022-12-11T20:27:09.432Z,101238.78
2022-12-11T20:29:35.912Z,101234.41
2022-12-11T20:32:02.423Z,101235.28
2022-12-11T20:34:28.978Z,101236.13
2022-12-11T20:36:56.256Z,101230.94
2022-12-11T20:39:22.728Z,101241.38
2022-12-11T20:41:49.159Z,101240.56
2022-12-11T20:44:15.614Z,101236.22
2022-12-11T20:46:42.037Z,101235.34
2022-12-11T20:49:12.854Z,101247.59
2022-12-11T20:51:40.268Z,101246.72
2022-12-11T20:54:06.873Z,101252.81
2022-12-11T20:56:33.403Z,101254.59
2022-12-11T20:59:00.696Z,101248.59
2022-12-11T21:01:29.293Z,101249.50
2022-12-11T21:03:55.969Z,101246.84
2022-12-11T21:06:31.021Z,101249.44
2022-12-11T21:08:59.621Z,101245.13
2022-12-11T21:11:26.890Z,101247.78
2022-12-11T21:13:54.151Z,101253.00
2022-12-11T21:16:21.034Z,101243.41
2022-12-11T21:18:48.426Z,101244.38
2022-12-11T21:21:15.890Z,101259.16
2022-12-11T21:23:42.735Z,101258.28
2022-12-11T21:26:09.773Z,101254.78
2022-12-11T21:28:36.181Z,101249.63
2022-12-11T21:31:06.714Z,101249.69
2022-12-11T21:33:33.770Z,101243.63
2022-12-11T21:36:00.656Z,101242.78
2022-12-11T21:38:27.791Z,101240.28
2022-12-11T21:40:55.381Z,101243.72
2022-12-11T21:43:22.413Z,101242.88
2022-12-11T21:46:05.283Z,101240.28
2022-12-11T21:48:31.888Z,101244.56
2022-12-11T21:51:15.126Z,101250.69
2022-12-11T21:53:42.042Z,101245.47
2022-12-11T21:56:10.782Z,101246.38
2022-12-11T21:58:38.800Z,101255.91
2022-12-11T22:01:10.838Z,101254.19
2022-12-11T22:03:37.256Z,101259.47
2022-12-11T22:06:03.905Z,101265.63
2022-12-11T22:08:30.427Z,101258.78
2022-12-11T22:10:56.985Z,101262.25
2022-12-11T22:13:23.745Z,101264.81
2022-12-11T22:15:52.199Z,101259.66
2022-12-11T22:18:19.143Z,101263.97
2022-12-11T22:20:45.701Z,101261.38
2022-12-11T22:23:12.475Z,101267.50
2022-12-11T22:25:39.119Z,101275.34
2022-12-11T22:28:05.485Z,101263.19
2022-12-11T22:30:32.098Z,101265.81
2022-12-11T22:32:58.593Z,101266.66
2022-12-11T22:35:27.318Z,101270.13
2022-12-11T22:37:54.378Z,101268.31
2022-12-11T22:40:21.058Z,101277.94
2022-12-11T22:42:47.575Z,101274.47
2022-12-11T22:45:14.366Z,101284.03
2022-12-11T22:47:41.157Z,101276.22
2022-12-11T22:50:08.097Z,101271.09
2022-12-11T22:52:34.756Z,101279.72
2022-12-11T22:55:01.372Z,101283.22
2022-12-11T22:57:27.878Z,101280.72
2022-12-11T22:59:54.391Z,101286.00
2022-12-11T23:02:20.856Z,101272.03
2022-12-11T23:04:48.125Z,101272.03
2022-12-11T23:07:14.740Z,101272.97
2022-12-11T23:09:41.467Z,101283.41
2022-12-11T23:12:08.127Z,101275.59
2022-12-11T23:14:34.614Z,101282.56
2022-12-11T23:17:01.039Z,101278.34
2022-12-11T23:19:27.670Z,101273.19
2022-12-11T23:21:54.259Z,101279.34
2022-12-11T23:24:20.818Z,101277.63
2022-12-11T23:26:48.141Z,101278.47
2022-12-11T23:29:14.745Z,101281.03
2022-12-11T23:31:41.201Z,101267.97
2022-12-11T23:34:07.561Z,101277.53
2022-12-11T23:36:33.925Z,101279.34
2022-12-11T23:39:00.260Z,101275.88
2022-12-11T23:41:26.704Z,101278.47
2022-12-11T23:43:53.205Z,101280.19
2022-12-11T23:46:22.879Z,101287.09
2022-12-11T23:48:49.878Z,101281.13
2022-12-11T23:51:18.751Z,101284.56
2022-12-11T23:53:45.709Z,101281.97
2022-12-11T23:56:18.835Z,101279.47
2022-12-11T23:58:45.701Z,101279.53
